Terminal Aerodrome Forecast
Issued by NWS

Home | Current Version | Previous Version | Graphics & Text | Print | Product List | Glossary On
Versions: 1 2 3 4 5 6 7 8 9 10 11 12 13 14 15 16
000
FTUS43 KMPX 300500
TAFRNH
TAF
KRNH 300534Z 3006/0106 07006KT P6SM OVC010
      TEMPO 3007/3009 OVC007
     FM300900 08004KT P6SM OVC007
     FM301300 10006KT P6SM SCT008 BKN012
     FM301500 11008KT P6SM SCT025 SCT250
     FM302000 12010KT P6SM SCT030 SCT060
     FM010300 13010KT 6SM -RA BR SCT020 BKN035=

USA.gov is the U.S. government's official web portal to all federal, state and local government web resources and services.